sensor_id;sensor_type;location;lat;lon;timestamp;P1;durP1;ratioP1;P2;durP2;ratioP2
19521;SDS011;9905;52.126;5.596;2023-06-26T00:01:57;11.10;;;10.00;;
19521;SDS011;9905;52.126;5.596;2023-06-26T00:04:24;11.55;;;10.65;;
19521;SDS011;9905;52.126;5.596;2023-06-26T00:06:50;12.10;;;10.25;;
19521;SDS011;9905;52.126;5.596;2023-06-26T00:09:17;10.70;;;9.88;;
19521;SDS011;9905;52.126;5.596;2023-06-26T00:11:44;11.73;;;10.70;;
19521;SDS011;9905;52.126;5.596;2023-06-26T00:14:12;10.52;;;9.73;;
19521;SDS011;9905;52.126;5.596;2023-06-26T00:16:39;11.32;;;10.43;;
19521;SDS011;9905;52.126;5.596;2023-06-26T00:19:07;11.63;;;10.57;;
19521;SDS011;9905;52.126;5.596;2023-06-26T00:21:34;17.67;;;11.25;;
19521;SDS011;9905;52.126;5.596;2023-06-26T00:24:01;10.32;;;9.52;;
19521;SDS011;9905;52.126;5.596;2023-06-26T00:26:27;11.73;;;10.63;;
19521;SDS011;9905;52.126;5.596;2023-06-26T00:28:54;10.10;;;9.38;;
19521;SDS011;9905;52.126;5.596;2023-06-26T00:31:22;10.32;;;9.43;;
19521;SDS011;9905;52.126;5.596;2023-06-26T00:33:49;9.63;;;8.95;;
19521;SDS011;9905;52.126;5.596;2023-06-26T00:36:16;10.25;;;9.35;;
19521;SDS011;9905;52.126;5.596;2023-06-26T00:38:43;12.05;;;10.75;;
19521;SDS011;9905;52.126;5.596;2023-06-26T00:41:09;9.80;;;9.10;;
19521;SDS011;9905;52.126;5.596;2023-06-26T00:43:37;10.13;;;9.25;;
19521;SDS011;9905;52.126;5.596;2023-06-26T00:46:05;11.50;;;10.60;;
19521;SDS011;9905;52.126;5.596;2023-06-26T00:48:37;10.85;;;10.13;;
19521;SDS011;9905;52.126;5.596;2023-06-26T00:51:05;10.85;;;9.82;;
19521;SDS011;9905;52.126;5.596;2023-06-26T00:53:32;11.43;;;10.52;;
19521;SDS011;9905;52.126;5.596;2023-06-26T00:55:59;11.82;;;10.68;;
19521;SDS011;9905;52.126;5.596;2023-06-26T00:58:26;11.80;;;10.80;;
19521;SDS011;9905;52.126;5.596;2023-06-26T01:00:53;12.50;;;11.32;;
19521;SDS011;9905;52.126;5.596;2023-06-26T01:03:21;13.48;;;12.38;;
19521;SDS011;9905;52.126;5.596;2023-06-26T01:05:50;13.73;;;12.52;;
19521;SDS011;9905;52.126;5.596;2023-06-26T01:08:18;13.00;;;11.82;;
19521;SDS011;9905;52.126;5.596;2023-06-26T01:10:46;11.48;;;10.57;;
19521;SDS011;9905;52.126;5.596;2023-06-26T01:13:13;12.25;;;11.25;;
19521;SDS011;9905;52.126;5.596;2023-06-26T01:15:42;12.68;;;11.57;;
19521;SDS011;9905;52.126;5.596;2023-06-26T01:18:09;11.57;;;10.57;;
19521;SDS011;9905;52.126;5.596;2023-06-26T01:20:36;14.65;;;11.65;;
19521;SDS011;9905;52.126;5.596;2023-06-26T01:23:12;12.25;;;10.98;;
19521;SDS011;9905;52.126;5.596;2023-06-26T01:25:47;11.95;;;10.93;;
19521;SDS011;9905;52.126;5.596;2023-06-26T01:28:27;10.95;;;10.05;;
19521;SDS011;9905;52.126;5.596;2023-06-26T01:30:55;11.13;;;10.23;;
19521;SDS011;9905;52.126;5.596;2023-06-26T01:33:22;11.05;;;10.07;;
19521;SDS011;9905;52.126;5.596;2023-06-26T01:35:49;11.13;;;10.25;;
19521;SDS011;9905;52.126;5.596;2023-06-26T01:38:17;10.35;;;9.50;;
19521;SDS011;9905;52.126;5.596;2023-06-26T01:40:45;9.15;;;8.23;;
19521;SDS011;9905;52.126;5.596;2023-06-26T01:43:15;9.00;;;8.20;;
19521;SDS011;9905;52.126;5.596;2023-06-26T01:45:47;9.15;;;8.30;;
19521;SDS011;9905;52.126;5.596;2023-06-26T01:48:16;8.88;;;8.18;;
19521;SDS011;9905;52.126;5.596;2023-06-26T01:50:46;8.52;;;7.93;;
19521;SDS011;9905;52.126;5.596;2023-06-26T01:53:17;8.95;;;8.05;;
19521;SDS011;9905;52.126;5.596;2023-06-26T01:55:49;8.02;;;7.32;;
19521;SDS011;9905;52.126;5.596;2023-06-26T01:58:19;7.70;;;6.97;;
19521;SDS011;9905;52.126;5.596;2023-06-26T02:00:51;8.50;;;7.63;;
19521;SDS011;9905;52.126;5.596;2023-06-26T02:03:18;7.07;;;6.57;;
19521;SDS011;9905;52.126;5.596;2023-06-26T02:05:45;7.55;;;6.95;;
19521;SDS011;9905;52.126;5.596;2023-06-26T02:08:13;8.02;;;7.32;;
19521;SDS011;9905;52.126;5.596;2023-06-26T02:10:40;7.85;;;6.80;;
19521;SDS011;9905;52.126;5.596;2023-06-26T02:13:07;7.45;;;6.95;;
19521;SDS011;9905;52.126;5.596;2023-06-26T02:15:34;7.38;;;6.68;;
19521;SDS011;9905;52.126;5.596;2023-06-26T02:18:02;7.57;;;6.97;;
19521;SDS011;9905;52.126;5.596;2023-06-26T02:20:29;6.68;;;6.15;;
19521;SDS011;9905;52.126;5.596;2023-06-26T02:22:56;6.57;;;6.00;;
19521;SDS011;9905;52.126;5.596;2023-06-26T02:25:23;6.60;;;6.00;;
19521;SDS011;9905;52.126;5.596;2023-06-26T02:27:50;6.32;;;5.90;;
19521;SDS011;9905;52.126;5.596;2023-06-26T02:30:17;6.68;;;6.20;;
19521;SDS011;9905;52.126;5.596;2023-06-26T02:32:44;6.18;;;5.68;;
19521;SDS011;9905;52.126;5.596;2023-06-26T02:35:12;6.30;;;5.80;;
19521;SDS011;9905;52.126;5.596;2023-06-26T02:37:39;5.90;;;5.50;;
19521;SDS011;9905;52.126;5.596;2023-06-26T02:40:06;5.70;;;5.30;;
19521;SDS011;9905;52.126;5.596;2023-06-26T02:42:34;6.13;;;5.53;;
19521;SDS011;9905;52.126;5.596;2023-06-26T02:45:01;5.72;;;5.35;;
19521;SDS011;9905;52.126;5.596;2023-06-26T02:47:28;5.13;;;4.72;;
19521;SDS011;9905;52.126;5.596;2023-06-26T02:49:55;5.53;;;5.13;;
19521;SDS011;9905;52.126;5.596;2023-06-26T02:52:23;7.55;;;5.35;;
19521;SDS011;9905;52.126;5.596;2023-06-26T02:54:50;5.13;;;4.72;;
19521;SDS011;9905;52.126;5.596;2023-06-26T02:57:17;5.53;;;5.13;;
19521;SDS011;9905;52.126;5.596;2023-06-26T02:59:43;6.05;;;4.97;;
19521;SDS011;9905;52.126;5.596;2023-06-26T03:02:10;5.63;;;5.13;;
19521;SDS011;9905;52.126;5.596;2023-06-26T03:04:37;5.20;;;4.70;;
19521;SDS011;9905;52.126;5.596;2023-06-26T03:07:04;6.90;;;5.20;;
19521;SDS011;9905;52.126;5.596;2023-06-26T03:09:32;5.65;;;5.00;;
19521;SDS011;9905;52.126;5.596;2023-06-26T03:11:59;6.40;;;5.13;;
19521;SDS011;9905;52.126;5.596;2023-06-26T03:14:26;7.20;;;4.38;;
19521;SDS011;9905;52.126;5.596;2023-06-26T03:16:53;4.82;;;4.10;;
19521;SDS011;9905;52.126;5.596;2023-06-26T03:19:22;9.10;;;5.65;;
19521;SDS011;9905;52.126;5.596;2023-06-26T03:21:49;5.20;;;4.70;;
19521;SDS011;9905;52.126;5.596;2023-06-26T03:24:16;7.15;;;5.10;;
19521;SDS011;9905;52.126;5.596;2023-06-26T03:26:45;5.10;;;4.70;;
19521;SDS011;9905;52.126;5.596;2023-06-26T03:29:11;4.63;;;4.25;;
19521;SDS011;9905;52.126;5.596;2023-06-26T03:31:38;6.95;;;4.93;;
19521;SDS011;9905;52.126;5.596;2023-06-26T03:34:05;6.03;;;5.05;;
19521;SDS011;9905;52.126;5.596;2023-06-26T03:36:32;5.85;;;4.97;;
19521;SDS011;9905;52.126;5.596;2023-06-26T03:38:58;8.60;;;5.03;;
19521;SDS011;9905;52.126;5.596;2023-06-26T03:41:26;7.53;;;5.10;;
19521;SDS011;9905;52.126;5.596;2023-06-26T03:43:54;5.40;;;4.90;;
19521;SDS011;9905;52.126;5.596;2023-06-26T03:46:21;7.68;;;5.05;;
19521;SDS011;9905;52.126;5.596;2023-06-26T03:48:48;5.88;;;4.55;;
19521;SDS011;9905;52.126;5.596;2023-06-26T03:51:15;4.45;;;4.03;;
19521;SDS011;9905;52.126;5.596;2023-06-26T03:53:42;5.93;;;4.40;;
19521;SDS011;9905;52.126;5.596;2023-06-26T03:56:09;8.68;;;4.80;;
19521;SDS011;9905;52.126;5.596;2023-06-26T03:58:35;4.95;;;4.47;;
19521;SDS011;9905;52.126;5.596;2023-06-26T04:01:03;9.45;;;5.18;;
19521;SDS011;9905;52.126;5.596;2023-06-26T04:03:30;5.45;;;4.60;;
19521;SDS011;9905;52.126;5.596;2023-06-26T04:05:57;6.47;;;4.95;;
19521;SDS011;9905;52.126;5.596;2023-06-26T04:08:24;6.60;;;4.82;;
19521;SDS011;9905;52.126;5.596;2023-06-26T04:10:51;8.45;;;5.68;;
19521;SDS011;9905;52.126;5.596;2023-06-26T04:13:18;9.45;;;5.10;;
19521;SDS011;9905;52.126;5.596;2023-06-26T04:15:45;5.93;;;5.35;;
19521;SDS011;9905;52.126;5.596;2023-06-26T04:18:13;6.63;;;4.88;;
19521;SDS011;9905;52.126;5.596;2023-06-26T04:20:41;5.88;;;4.90;;
19521;SDS011;9905;52.126;5.596;2023-06-26T04:23:29;8.88;;;4.70;;
19521;SDS011;9905;52.126;5.596;2023-06-26T04:25:56;10.00;;;5.03;;
19521;SDS011;9905;52.126;5.596;2023-06-26T04:28:24;8.13;;;4.88;;
19521;SDS011;9905;52.126;5.596;2023-06-26T04:30:51;8.55;;;4.90;;
19521;SDS011;9905;52.126;5.596;2023-06-26T04:33:18;6.95;;;4.93;;
19521;SDS011;9905;52.126;5.596;2023-06-26T04:35:45;7.20;;;4.82;;
19521;SDS011;9905;52.126;5.596;2023-06-26T04:38:13;8.80;;;4.68;;
19521;SDS011;9905;52.126;5.596;2023-06-26T04:40:42;6.35;;;4.60;;
19521;SDS011;9905;52.126;5.596;2023-06-26T04:43:09;8.25;;;4.80;;
19521;SDS011;9905;52.126;5.596;2023-06-26T04:45:35;6.93;;;4.78;;
19521;SDS011;9905;52.126;5.596;2023-06-26T04:48:03;9.23;;;4.88;;
19521;SDS011;9905;52.126;5.596;2023-06-26T04:50:30;7.50;;;5.07;;
19521;SDS011;9905;52.126;5.596;2023-06-26T04:52:58;10.23;;;4.65;;
19521;SDS011;9905;52.126;5.596;2023-06-26T04:55:25;8.20;;;4.80;;
19521;SDS011;9905;52.126;5.596;2023-06-26T04:57:54;4.70;;;4.25;;
19521;SDS011;9905;52.126;5.596;2023-06-26T05:00:21;6.63;;;4.70;;
19521;SDS011;9905;52.126;5.596;2023-06-26T05:02:49;11.65;;;5.32;;
19521;SDS011;9905;52.126;5.596;2023-06-26T05:05:26;6.88;;;4.68;;
19521;SDS011;9905;52.126;5.596;2023-06-26T05:07:53;5.93;;;4.68;;
19521;SDS011;9905;52.126;5.596;2023-06-26T05:10:20;9.30;;;5.20;;
19521;SDS011;9905;52.126;5.596;2023-06-26T05:12:47;5.65;;;4.28;;
19521;SDS011;9905;52.126;5.596;2023-06-26T05:15:15;6.85;;;4.72;;
19521;SDS011;9905;52.126;5.596;2023-06-26T05:17:42;8.70;;;4.72;;
19521;SDS011;9905;52.126;5.596;2023-06-26T05:20:09;5.53;;;4.43;;
19521;SDS011;9905;52.126;5.596;2023-06-26T05:22:37;5.95;;;4.05;;
19521;SDS011;9905;52.126;5.596;2023-06-26T05:25:05;5.03;;;4.25;;
19521;SDS011;9905;52.126;5.596;2023-06-26T05:27:35;6.15;;;3.72;;
19521;SDS011;9905;52.126;5.596;2023-06-26T05:30:02;7.13;;;4.85;;
19521;SDS011;9905;52.126;5.596;2023-06-26T05:32:31;6.93;;;3.92;;
19521;SDS011;9905;52.126;5.596;2023-06-26T05:35:01;6.35;;;4.05;;
19521;SDS011;9905;52.126;5.596;2023-06-26T05:37:29;4.97;;;4.45;;
19521;SDS011;9905;52.126;5.596;2023-06-26T05:39:57;5.57;;;4.00;;
19521;SDS011;9905;52.126;5.596;2023-06-26T05:42:25;4.65;;;3.95;;
19521;SDS011;9905;52.126;5.596;2023-06-26T05:44:52;7.70;;;3.60;;
19521;SDS011;9905;52.126;5.596;2023-06-26T05:47:19;5.93;;;4.22;;
19521;SDS011;9905;52.126;5.596;2023-06-26T05:49:48;3.90;;;3.50;;
19521;SDS011;9905;52.126;5.596;2023-06-26T05:52:15;5.70;;;4.28;;
19521;SDS011;9905;52.126;5.596;2023-06-26T05:54:42;4.40;;;3.90;;
19521;SDS011;9905;52.126;5.596;2023-06-26T05:57:09;4.20;;;3.80;;
19521;SDS011;9905;52.126;5.596;2023-06-26T05:59:39;4.72;;;4.05;;
19521;SDS011;9905;52.126;5.596;2023-06-26T06:02:06;4.38;;;3.58;;
19521;SDS011;9905;52.126;5.596;2023-06-26T06:04:33;4.65;;;3.58;;
19521;SDS011;9905;52.126;5.596;2023-06-26T06:07:03;4.18;;;3.38;;
19521;SDS011;9905;52.126;5.596;2023-06-26T06:09:30;5.07;;;3.70;;
19521;SDS011;9905;52.126;5.596;2023-06-26T06:11:58;4.10;;;3.45;;
19521;SDS011;9905;52.126;5.596;2023-06-26T06:14:26;4.40;;;3.22;;
19521;SDS011;9905;52.126;5.596;2023-06-26T06:16:53;3.50;;;3.25;;
19521;SDS011;9905;52.126;5.596;2023-06-26T06:19:19;3.03;;;2.72;;
19521;SDS011;9905;52.126;5.596;2023-06-26T06:21:46;3.47;;;3.17;;
19521;SDS011;9905;52.126;5.596;2023-06-26T06:24:14;3.20;;;2.90;;
19521;SDS011;9905;52.126;5.596;2023-06-26T06:26:41;2.95;;;2.75;;
19521;SDS011;9905;52.126;5.596;2023-06-26T06:29:08;3.58;;;3.00;;
19521;SDS011;9905;52.126;5.596;2023-06-26T06:31:35;3.35;;;3.05;;
19521;SDS011;9905;52.126;5.596;2023-06-26T06:34:02;3.80;;;2.95;;
19521;SDS011;9905;52.126;5.596;2023-06-26T06:36:28;2.75;;;2.55;;
19521;SDS011;9905;52.126;5.596;2023-06-26T06:38:56;2.60;;;2.40;;
19521;SDS011;9905;52.126;5.596;2023-06-26T06:41:24;2.63;;;2.50;;
19521;SDS011;9905;52.126;5.596;2023-06-26T06:43:51;2.92;;;2.63;;
19521;SDS011;9905;52.126;5.596;2023-06-26T06:46:17;2.50;;;2.40;;
19521;SDS011;9905;52.126;5.596;2023-06-26T06:48:44;2.50;;;2.40;;
19521;SDS011;9905;52.126;5.596;2023-06-26T06:51:12;4.70;;;3.17;;
19521;SDS011;9905;52.126;5.596;2023-06-26T06:53:38;2.90;;;2.55;;
19521;SDS011;9905;52.126;5.596;2023-06-26T06:56:05;3.10;;;2.72;;
19521;SDS011;9905;52.126;5.596;2023-06-26T06:58:33;3.08;;;2.80;;
19521;SDS011;9905;52.126;5.596;2023-06-26T07:01:01;2.85;;;2.65;;
19521;SDS011;9905;52.126;5.596;2023-06-26T07:03:29;2.70;;;2.50;;
19521;SDS011;9905;52.126;5.596;2023-06-26T07:05:56;3.10;;;2.90;;
19521;SDS011;9905;52.126;5.596;2023-06-26T07:08:23;3.45;;;3.15;;
19521;SDS011;9905;52.126;5.596;2023-06-26T07:10:50;5.07;;;2.70;;
19521;SDS011;9905;52.126;5.596;2023-06-26T07:13:16;3.13;;;2.80;;
19521;SDS011;9905;52.126;5.596;2023-06-26T07:15:45;2.47;;;2.38;;
19521;SDS011;9905;52.126;5.596;2023-06-26T07:18:12;2.80;;;2.53;;
19521;SDS011;9905;52.126;5.596;2023-06-26T07:20:39;2.65;;;2.55;;
19521;SDS011;9905;52.126;5.596;2023-06-26T07:23:07;3.25;;;2.80;;
19521;SDS011;9905;52.126;5.596;2023-06-26T07:25:34;3.20;;;2.90;;
19521;SDS011;9905;52.126;5.596;2023-06-26T07:28:00;2.50;;;2.40;;
19521;SDS011;9905;52.126;5.596;2023-06-26T07:30:28;2.75;;;2.55;;
19521;SDS011;9905;52.126;5.596;2023-06-26T07:32:56;5.13;;;2.85;;
19521;SDS011;9905;52.126;5.596;2023-06-26T07:35:23;2.53;;;2.33;;
19521;SDS011;9905;52.126;5.596;2023-06-26T07:37:52;3.30;;;2.60;;
19521;SDS011;9905;52.126;5.596;2023-06-26T07:40:19;5.63;;;2.70;;
19521;SDS011;9905;52.126;5.596;2023-06-26T07:42:46;2.92;;;2.70;;
19521;SDS011;9905;52.126;5.596;2023-06-26T07:45:13;2.80;;;2.60;;
19521;SDS011;9905;52.126;5.596;2023-06-26T07:47:40;2.80;;;2.60;;
19521;SDS011;9905;52.126;5.596;2023-06-26T07:50:09;3.42;;;3.05;;
19521;SDS011;9905;52.126;5.596;2023-06-26T07:52:36;3.28;;;2.60;;
19521;SDS011;9905;52.126;5.596;2023-06-26T07:55:03;4.00;;;3.45;;
19521;SDS011;9905;52.126;5.596;2023-06-26T07:57:30;2.95;;;2.72;;
19521;SDS011;9905;52.126;5.596;2023-06-26T07:59:58;2.92;;;2.72;;
19521;SDS011;9905;52.126;5.596;2023-06-26T08:02:24;3.17;;;2.50;;
19521;SDS011;9905;52.126;5.596;2023-06-26T08:04:51;3.53;;;2.70;;
19521;SDS011;9905;52.126;5.596;2023-06-26T08:07:19;4.60;;;2.95;;
19521;SDS011;9905;52.126;5.596;2023-06-26T08:09:46;2.90;;;2.70;;
19521;SDS011;9905;52.126;5.596;2023-06-26T08:12:13;2.60;;;2.40;;
19521;SDS011;9905;52.126;5.596;2023-06-26T08:14:40;3.58;;;3.13;;
19521;SDS011;9905;52.126;5.596;2023-06-26T08:17:06;3.15;;;2.90;;
19521;SDS011;9905;52.126;5.596;2023-06-26T08:19:33;5.75;;;2.80;;
19521;SDS011;9905;52.126;5.596;2023-06-26T08:22:00;2.72;;;2.53;;
19521;SDS011;9905;52.126;5.596;2023-06-26T08:24:28;2.78;;;2.65;;
19521;SDS011;9905;52.126;5.596;2023-06-26T08:26:55;2.97;;;2.78;;
19521;SDS011;9905;52.126;5.596;2023-06-26T08:29:24;3.25;;;3.03;;
19521;SDS011;9905;52.126;5.596;2023-06-26T08:31:50;3.42;;;3.05;;
19521;SDS011;9905;52.126;5.596;2023-06-26T08:34:17;3.95;;;3.13;;
19521;SDS011;9905;52.126;5.596;2023-06-26T08:36:44;3.03;;;2.80;;
19521;SDS011;9905;52.126;5.596;2023-06-26T08:39:11;3.10;;;2.80;;
19521;SDS011;9905;52.126;5.596;2023-06-26T08:41:39;2.70;;;2.50;;
19521;SDS011;9905;52.126;5.596;2023-06-26T08:44:07;3.08;;;2.50;;
19521;SDS011;9905;52.126;5.596;2023-06-26T08:46:34;3.10;;;2.30;;
19521;SDS011;9905;52.126;5.596;2023-06-26T08:49:02;3.40;;;2.90;;
19521;SDS011;9905;52.126;5.596;2023-06-26T08:51:38;2.72;;;2.58;;
19521;SDS011;9905;52.126;5.596;2023-06-26T08:54:09;4.30;;;2.35;;
19521;SDS011;9905;52.126;5.596;2023-06-26T08:56:42;4.50;;;2.30;;
19521;SDS011;9905;52.126;5.596;2023-06-26T08:59:10;2.17;;;1.98;;
19521;SDS011;9905;52.126;5.596;2023-06-26T09:01:39;1.80;;;1.60;;
19521;SDS011;9905;52.126;5.596;2023-06-26T09:04:06;2.05;;;1.85;;
19521;SDS011;9905;52.126;5.596;2023-06-26T09:06:33;2.85;;;1.60;;
19521;SDS011;9905;52.126;5.596;2023-06-26T09:09:00;2.05;;;1.85;;
19521;SDS011;9905;52.126;5.596;2023-06-26T09:11:27;1.65;;;1.55;;
19521;SDS011;9905;52.126;5.596;2023-06-26T09:13:56;2.67;;;1.63;;
19521;SDS011;9905;52.126;5.596;2023-06-26T09:16:26;2.80;;;2.03;;
19521;SDS011;9905;52.126;5.596;2023-06-26T09:18:53;3.58;;;1.80;;
19521;SDS011;9905;52.126;5.596;2023-06-26T09:21:19;2.70;;;1.80;;
19521;SDS011;9905;52.126;5.596;2023-06-26T09:23:49;1.67;;;1.58;;
19521;SDS011;9905;52.126;5.596;2023-06-26T09:26:16;1.95;;;1.70;;
19521;SDS011;9905;52.126;5.596;2023-06-26T09:28:43;2.45;;;1.45;;
19521;SDS011;9905;52.126;5.596;2023-06-26T09:31:12;2.53;;;1.67;;
19521;SDS011;9905;52.126;5.596;2023-06-26T09:33:39;1.83;;;1.60;;
19521;SDS011;9905;52.126;5.596;2023-06-26T09:36:07;2.15;;;1.48;;
19521;SDS011;9905;52.126;5.596;2023-06-26T09:38:44;3.83;;;1.77;;
19521;SDS011;9905;52.126;5.596;2023-06-26T09:41:10;2.63;;;1.60;;
19521;SDS011;9905;52.126;5.596;2023-06-26T09:43:45;3.47;;;1.60;;
19521;SDS011;9905;52.126;5.596;2023-06-26T09:46:16;2.45;;;1.83;;
19521;SDS011;9905;52.126;5.596;2023-06-26T09:48:43;1.63;;;1.52;;
19521;SDS011;9905;52.126;5.596;2023-06-26T09:51:10;1.60;;;1.50;;
19521;SDS011;9905;52.126;5.596;2023-06-26T09:53:37;1.70;;;1.60;;
19521;SDS011;9905;52.126;5.596;2023-06-26T09:56:07;2.20;;;2.00;;
19521;SDS011;9905;52.126;5.596;2023-06-26T09:58:40;2.17;;;1.67;;
19521;SDS011;9905;52.126;5.596;2023-06-26T10:01:09;2.72;;;1.77;;
19521;SDS011;9905;52.126;5.596;2023-06-26T10:03:37;3.90;;;1.83;;
19521;SDS011;9905;52.126;5.596;2023-06-26T10:06:04;1.63;;;1.52;;
19521;SDS011;9905;52.126;5.596;2023-06-26T10:08:32;1.77;;;1.67;;
19521;SDS011;9905;52.126;5.596;2023-06-26T10:11:02;2.33;;;1.50;;
19521;SDS011;9905;52.126;5.596;2023-06-26T10:13:30;1.83;;;1.73;;
19521;SDS011;9905;52.126;5.596;2023-06-26T10:16:00;1.88;;;1.60;;
19521;SDS011;9905;52.126;5.596;2023-06-26T10:18:27;2.95;;;1.40;;
19521;SDS011;9905;52.126;5.596;2023-06-26T10:20:58;1.58;;;1.48;;
19521;SDS011;9905;52.126;5.596;2023-06-26T10:23:28;1.60;;;1.50;;
19521;SDS011;9905;52.126;5.596;2023-06-26T10:25:57;2.55;;;1.80;;
19521;SDS011;9905;52.126;5.596;2023-06-26T10:28:26;2.95;;;1.80;;
19521;SDS011;9905;52.126;5.596;2023-06-26T10:30:56;1.63;;;1.50;;
19521;SDS011;9905;52.126;5.596;2023-06-26T10:33:24;1.50;;;1.40;;
19521;SDS011;9905;52.126;5.596;2023-06-26T10:35:51;2.08;;;1.73;;
19521;SDS011;9905;52.126;5.596;2023-06-26T10:38:20;2.97;;;1.58;;
19521;SDS011;9905;52.126;5.596;2023-06-26T10:40:47;3.33;;;1.70;;
19521;SDS011;9905;52.126;5.596;2023-06-26T10:43:15;3.83;;;1.45;;
19521;SDS011;9905;52.126;5.596;2023-06-26T10:45:43;1.73;;;1.48;;
19521;SDS011;9905;52.126;5.596;2023-06-26T10:48:13;1.92;;;1.35;;
19521;SDS011;9905;52.126;5.596;2023-06-26T10:50:41;1.60;;;1.50;;
19521;SDS011;9905;52.126;5.596;2023-06-26T10:53:08;3.75;;;1.67;;
19521;SDS011;9905;52.126;5.596;2023-06-26T10:55:49;1.70;;;1.60;;
19521;SDS011;9905;52.126;5.596;2023-06-26T10:58:31;2.63;;;1.20;;
19521;SDS011;9905;52.126;5.596;2023-06-26T11:01:18;2.42;;;1.83;;
19521;SDS011;9905;52.126;5.596;2023-06-26T11:03:47;1.63;;;1.50;;
19521;SDS011;9905;52.126;5.596;2023-06-26T11:06:23;4.07;;;1.63;;
19521;SDS011;9905;52.126;5.596;2023-06-26T11:08:59;1.60;;;1.50;;
19521;SDS011;9905;52.126;5.596;2023-06-26T11:14:27;2.10;;;1.40;;
19521;SDS011;9905;52.126;5.596;2023-06-26T11:16:54;2.88;;;1.38;;
19521;SDS011;9905;52.126;5.596;2023-06-26T11:19:22;2.53;;;1.10;;
19521;SDS011;9905;52.126;5.596;2023-06-26T11:21:51;1.92;;;1.55;;
19521;SDS011;9905;52.126;5.596;2023-06-26T11:24:18;1.98;;;1.67;;
19521;SDS011;9905;52.126;5.596;2023-06-26T11:26:46;2.85;;;1.40;;
19521;SDS011;9905;52.126;5.596;2023-06-26T11:29:14;2.67;;;1.42;;
19521;SDS011;9905;52.126;5.596;2023-06-26T11:31:41;2.72;;;1.70;;
19521;SDS011;9905;52.126;5.596;2023-06-26T11:34:08;1.30;;;1.20;;
19521;SDS011;9905;52.126;5.596;2023-06-26T11:36:36;1.27;;;1.20;;
19521;SDS011;9905;52.126;5.596;2023-06-26T11:39:04;2.13;;;1.50;;
19521;SDS011;9905;52.126;5.596;2023-06-26T11:41:33;1.45;;;1.35;;
19521;SDS011;9905;52.126;5.596;2023-06-26T11:44:01;3.42;;;1.58;;
19521;SDS011;9905;52.126;5.596;2023-06-26T11:46:29;1.33;;;1.33;;
19521;SDS011;9905;52.126;5.596;2023-06-26T11:48:57;2.38;;;1.40;;
19521;SDS011;9905;52.126;5.596;2023-06-26T11:51:24;1.65;;;1.42;;
19521;SDS011;9905;52.126;5.596;2023-06-26T11:53:53;1.58;;;1.48;;
19521;SDS011;9905;52.126;5.596;2023-06-26T11:56:20;1.52;;;1.42;;
19521;SDS011;9905;52.126;5.596;2023-06-26T11:58:56;2.47;;;1.52;;
19521;SDS011;9905;52.126;5.596;2023-06-26T12:01:24;1.90;;;1.30;;
19521;SDS011;9905;52.126;5.596;2023-06-26T12:03:54;1.48;;;1.38;;
19521;SDS011;9905;52.126;5.596;2023-06-26T12:06:24;1.60;;;1.50;;
19521;SDS011;9905;52.126;5.596;2023-06-26T12:08:51;2.15;;;1.30;;
19521;SDS011;9905;52.126;5.596;2023-06-26T12:11:18;3.70;;;1.20;;
19521;SDS011;9905;52.126;5.596;2023-06-26T12:13:48;1.40;;;1.20;;
19521;SDS011;9905;52.126;5.596;2023-06-26T12:16:16;1.38;;;1.27;;
19521;SDS011;9905;52.126;5.596;2023-06-26T12:18:43;1.40;;;1.30;;
19521;SDS011;9905;52.126;5.596;2023-06-26T12:24:00;2.50;;;1.30;;
19521;SDS011;9905;52.126;5.596;2023-06-26T12:26:27;1.38;;;1.30;;
19521;SDS011;9905;52.126;5.596;2023-06-26T12:29:01;2.00;;;1.30;;
19521;SDS011;9905;52.126;5.596;2023-06-26T12:31:28;1.10;;;1.10;;
19521;SDS011;9905;52.126;5.596;2023-06-26T12:33:59;1.27;;;1.20;;
19521;SDS011;9905;52.126;5.596;2023-06-26T12:36:26;1.95;;;1.10;;
19521;SDS011;9905;52.126;5.596;2023-06-26T12:38:54;1.05;;;1.05;;
19521;SDS011;9905;52.126;5.596;2023-06-26T12:41:23;1.70;;;1.00;;
19521;SDS011;9905;52.126;5.596;2023-06-26T12:43:55;1.42;;;1.33;;
19521;SDS011;9905;52.126;5.596;2023-06-26T12:46:32;1.48;;;1.13;;
19521;SDS011;9905;52.126;5.596;2023-06-26T12:49:00;2.17;;;1.30;;
19521;SDS011;9905;52.126;5.596;2023-06-26T12:51:28;1.40;;;1.20;;
19521;SDS011;9905;52.126;5.596;2023-06-26T12:53:56;1.40;;;1.23;;
19521;SDS011;9905;52.126;5.596;2023-06-26T12:56:23;2.60;;;1.27;;
19521;SDS011;9905;52.126;5.596;2023-06-26T12:58:49;1.40;;;1.30;;
19521;SDS011;9905;52.126;5.596;2023-06-26T13:01:16;2.17;;;1.48;;
19521;SDS011;9905;52.126;5.596;2023-06-26T13:03:45;1.55;;;1.27;;
19521;SDS011;9905;52.126;5.596;2023-06-26T13:06:12;1.30;;;1.30;;
19521;SDS011;9905;52.126;5.596;2023-06-26T13:08:39;1.20;;;1.20;;
19521;SDS011;9905;52.126;5.596;2023-06-26T13:11:08;2.47;;;1.23;;
19521;SDS011;9905;52.126;5.596;2023-06-26T13:13:35;1.10;;;1.10;;
19521;SDS011;9905;52.126;5.596;2023-06-26T13:16:01;1.75;;;1.17;;
19521;SDS011;9905;52.126;5.596;2023-06-26T13:18:28;1.63;;;1.08;;
19521;SDS011;9905;52.126;5.596;2023-06-26T13:20:55;1.42;;;1.08;;
19521;SDS011;9905;52.126;5.596;2023-06-26T13:23:22;1.10;;;1.10;;
19521;SDS011;9905;52.126;5.596;2023-06-26T13:25:49;1.42;;;1.30;;
19521;SDS011;9905;52.126;5.596;2023-06-26T13:28:18;1.45;;;1.05;;
19521;SDS011;9905;52.126;5.596;2023-06-26T13:30:44;1.33;;;1.23;;
19521;SDS011;9905;52.126;5.596;2023-06-26T13:33:11;1.08;;;1.05;;
19521;SDS011;9905;52.126;5.596;2023-06-26T13:35:38;1.35;;;1.25;;
19521;SDS011;9905;52.126;5.596;2023-06-26T13:38:05;1.48;;;1.38;;
19521;SDS011;9905;52.126;5.596;2023-06-26T13:40:31;1.10;;;1.10;;
19521;SDS011;9905;52.126;5.596;2023-06-26T13:42:58;1.38;;;1.10;;
19521;SDS011;9905;52.126;5.596;2023-06-26T13:45:27;1.30;;;1.20;;
19521;SDS011;9905;52.126;5.596;2023-06-26T13:47:53;1.20;;;1.20;;
19521;SDS011;9905;52.126;5.596;2023-06-26T13:50:20;1.80;;;1.30;;
19521;SDS011;9905;52.126;5.596;2023-06-26T13:52:47;3.75;;;1.67;;
19521;SDS011;9905;52.126;5.596;2023-06-26T13:55:14;1.42;;;1.40;;
19521;SDS011;9905;52.126;5.596;2023-06-26T13:57:41;1.85;;;1.33;;
19521;SDS011;9905;52.126;5.596;2023-06-26T14:00:08;3.83;;;1.42;;
19521;SDS011;9905;52.126;5.596;2023-06-26T14:02:38;2.92;;;1.30;;
19521;SDS011;9905;52.126;5.596;2023-06-26T14:05:05;1.23;;;1.00;;
19521;SDS011;9905;52.126;5.596;2023-06-26T14:07:33;1.40;;;1.30;;
19521;SDS011;9905;52.126;5.596;2023-06-26T14:10:00;1.30;;;1.20;;
19521;SDS011;9905;52.126;5.596;2023-06-26T14:12:27;1.40;;;1.30;;
19521;SDS011;9905;52.126;5.596;2023-06-26T14:14:54;1.20;;;1.10;;
19521;SDS011;9905;52.126;5.596;2023-06-26T14:17:20;1.73;;;1.10;;
19521;SDS011;9905;52.126;5.596;2023-06-26T14:19:50;1.73;;;1.10;;
19521;SDS011;9905;52.126;5.596;2023-06-26T14:22:17;1.55;;;1.35;;
19521;SDS011;9905;52.126;5.596;2023-06-26T14:24:44;1.30;;;1.20;;
19521;SDS011;9905;52.126;5.596;2023-06-26T14:27:10;1.40;;;1.20;;
19521;SDS011;9905;52.126;5.596;2023-06-26T14:29:37;2.33;;;1.40;;
19521;SDS011;9905;52.126;5.596;2023-06-26T14:32:05;1.00;;;1.00;;
19521;SDS011;9905;52.126;5.596;2023-06-26T14:34:32;1.38;;;1.27;;
19521;SDS011;9905;52.126;5.596;2023-06-26T14:37:00;1.60;;;1.50;;
19521;SDS011;9905;52.126;5.596;2023-06-26T14:39:27;1.30;;;1.20;;
19521;SDS011;9905;52.126;5.596;2023-06-26T14:41:54;3.10;;;1.38;;
19521;SDS011;9905;52.126;5.596;2023-06-26T14:44:21;1.38;;;1.33;;
19521;SDS011;9905;52.126;5.596;2023-06-26T14:46:48;1.42;;;1.33;;
19521;SDS011;9905;52.126;5.596;2023-06-26T14:49:15;2.15;;;1.30;;
19521;SDS011;9905;52.126;5.596;2023-06-26T14:51:42;1.00;;;1.00;;
19521;SDS011;9905;52.126;5.596;2023-06-26T14:54:10;1.30;;;1.20;;
19521;SDS011;9905;52.126;5.596;2023-06-26T14:56:37;2.40;;;1.23;;
19521;SDS011;9905;52.126;5.596;2023-06-26T14:59:04;1.35;;;1.27;;
19521;SDS011;9905;52.126;5.596;2023-06-26T15:01:32;1.63;;;1.20;;
19521;SDS011;9905;52.126;5.596;2023-06-26T15:03:59;2.15;;;1.13;;
19521;SDS011;9905;52.126;5.596;2023-06-26T15:06:25;1.48;;;1.20;;
19521;SDS011;9905;52.126;5.596;2023-06-26T15:08:52;1.30;;;1.30;;